Time;durP1;ratioP1;P1;durP2;ratioP2;P2;SDS_P1;SDS_P2;PMS_P1;PMS_P2;Temp;Humidity;BMP_temperature;BMP_pressure;BME280_temperature;BME280_humidity;BME280_pressure;Samples;Min_cycle;Max_cycle;Signal;HPM_P1;HPM_P2
2023/01/29 00:00:00;;;;;;;0.60;0.60;;;;;;;-1.57;83.19;97921.88;29371;219;64013;-57
2023/01/29 00:00:31;;;;;;;0.60;0.60;;;;;;;-1.55;83.05;97909.19;29373;281;63007;-57
2023/01/29 00:01:07;;;;;;;0.70;0.70;;;;;;;-1.55;83.46;97916.34;29373;229;63008;-58
2023/01/29 00:01:41;;;;;;;0.60;0.60;;;;;;;-1.57;82.78;97913.88;29373;235;63005;-58
2023/01/29 00:02:14;;;;;;;0.60;0.60;;;;;;;-1.58;83.23;97917.56;29373;238;63009;-57
2023/01/29 00:02:49;;;;;;;0.60;0.60;;;;;;;-1.57;83.10;97918.38;29373;235;63005;-64
2023/01/29 00:03:20;;;;;;;0.70;0.70;;;;;;;-1.59;82.97;97915.91;29373;224;63026;-57
2023/01/29 00:03:51;;;;;;;0.70;0.70;;;;;;;-1.59;83.17;97915.91;29373;205;63005;-57
2023/01/29 00:04:23;;;;;;;0.70;0.70;;;;;;;-1.55;83.38;97917.19;29373;224;63009;-58
2023/01/29 00:04:55;;;;;;;0.70;0.70;;;;;;;-1.53;83.55;97923.13;29373;205;63004;-57
2023/01/29 00:05:26;;;;;;;0.70;0.70;;;;;;;-1.51;83.16;97921.09;29371;318;64013;-58
2023/01/29 00:05:58;;;;;;;0.60;0.60;;;;;;;-1.51;83.25;97921.09;29373;216;63004;-57
2023/01/29 00:06:32;;;;;;;0.60;0.60;;;;;;;-1.51;83.16;97929.09;29373;214;63009;-57
2023/01/29 00:07:04;;;;;;;0.60;0.60;;;;;;;-1.52;83.04;97921.28;29373;225;63004;-57
2023/01/29 00:07:35;;;;;;;0.68;0.68;;;;;;;-1.51;83.47;97915.78;29372;246;63008;-57
2023/01/29 00:08:06;;;;;;;0.70;0.70;;;;;;;-1.51;83.18;97922.94;29373;227;63005;-64
2023/01/29 00:08:38;;;;;;;0.60;0.60;;;;;;;-1.50;83.22;97922.75;29373;214;63009;-58
2023/01/29 00:09:10;;;;;;;0.60;0.60;;;;;;;-1.50;83.18;97919.28;29373;216;63005;-57
2023/01/29 00:09:42;;;;;;;0.68;0.68;;;;;;;-1.51;83.47;97926.44;29373;224;63022;-57
2023/01/29 00:10:14;;;;;;;0.60;0.60;;;;;;;-1.52;83.28;97924.78;29373;288;63005;-57
2023/01/29 00:10:46;;;;;;;0.60;0.60;;;;;;;-1.51;83.39;97922.94;29371;222;64013;-57
2023/01/29 00:11:19;;;;;;;0.70;0.70;;;;;;;-1.51;83.36;97929.09;29373;263;63005;-57
2023/01/29 00:11:50;;;;;;;0.70;0.70;;;;;;;-1.52;83.44;97922.13;29373;294;63009;-57
2023/01/29 00:12:21;;;;;;;0.70;0.70;;;;;;;-1.51;83.49;97918.44;29373;327;63000;-59
2023/01/29 00:12:54;;;;;;;0.70;0.70;;;;;;;-1.51;83.74;97913.13;29373;202;63009;-57
2023/01/29 00:13:25;;;;;;;0.60;0.60;;;;;;;-1.51;83.58;97913.13;29373;234;63004;-57
2023/01/29 00:13:56;;;;;;;0.68;0.68;;;;;;;-1.51;83.89;97913.13;29373;208;63009;-65
2023/01/29 00:14:28;;;;;;;0.60;0.60;;;;;;;-1.50;84.00;97917.44;29373;208;63004;-57
2023/01/29 00:14:59;;;;;;;0.70;0.70;;;;;;;-1.48;83.95;97919.91;29373;239;63008;-57
2023/01/29 00:15:32;;;;;;;0.60;0.60;;;;;;;-1.47;83.77;97921.56;29373;211;63004;-58
2023/01/29 00:16:04;;;;;;;0.60;0.60;;;;;;;-1.43;83.91;97920.97;29371;327;64014;-57
2023/01/29 00:16:35;;;;;;;0.60;0.60;;;;;;;-1.39;83.75;97916.88;29373;289;63012;-57
2023/01/29 00:17:07;;;;;;;0.60;0.60;;;;;;;-1.33;83.37;97922.47;29373;213;63009;-57
2023/01/29 00:17:39;;;;;;;0.60;0.60;;;;;;;-1.36;82.63;97924.50;29373;336;63005;-57
2023/01/29 00:18:10;;;;;;;0.60;0.60;;;;;;;-1.36;82.88;97926.34;29373;257;63009;-58
2023/01/29 00:18:41;;;;;;;0.60;0.60;;;;;;;-1.40;82.66;97920.59;29373;219;63005;-56
2023/01/29 00:19:13;;;;;;;0.60;0.60;;;;;;;-1.44;82.78;97918.50;29373;198;63009;-58
2023/01/29 00:19:45;;;;;;;0.60;0.60;;;;;;;-1.44;83.17;97919.34;29373;231;63004;-56
2023/01/29 00:20:17;;;;;;;0.60;0.60;;;;;;;-1.47;83.65;97924.22;29373;226;63009;-58
2023/01/29 00:20:51;;;;;;;0.60;0.60;;;;;;;-1.47;83.65;97929.53;29373;219;63004;-57
2023/01/29 00:21:24;;;;;;;0.65;0.65;;;;;;;-1.49;83.56;97920.91;29371;293;64013;-57
2023/01/29 00:21:55;;;;;;;0.70;0.70;;;;;;;-1.49;83.60;97920.91;29373;216;63004;-57
2023/01/29 00:22:29;;;;;;;0.62;0.62;;;;;;;-1.48;84.13;97922.56;29373;317;63023;-57
2023/01/29 00:23:00;;;;;;;0.60;0.60;;;;;;;-1.48;84.08;97918.06;29373;207;63004;-57
2023/01/29 00:23:32;;;;;;;0.70;0.70;;;;;;;-1.46;83.99;97920.53;29373;202;63009;-57
2023/01/29 00:24:04;;;;;;;0.60;0.60;;;;;;;-1.44;84.00;97918.50;29373;202;63005;-58
2023/01/29 00:24:35;;;;;;;0.60;0.60;;;;;;;-1.42;84.05;97917.31;29373;210;63009;-64
2023/01/29 00:25:10;;;;;;;0.60;0.60;;;;;;;-1.29;83.10;97910.41;29373;274;63011;-57
2023/01/29 00:25:43;;;;;;;0.60;0.60;;;;;;;-1.25;82.95;97911.69;29373;207;63009;-58
2023/01/29 00:26:16;;;;;;;0.60;0.60;;;;;;;-1.27;82.41;97919.87;29373;206;63005;-58
2023/01/29 00:26:49;;;;;;;0.70;0.70;;;;;;;-1.28;82.59;97914.72;29371;225;64013;-57
2023/01/29 00:27:20;;;;;;;0.60;0.60;;;;;;;-1.32;82.30;97910.81;29373;208;63018;-58
2023/01/29 00:27:55;;;;;;;0.60;0.60;;;;;;;-1.36;82.38;97910.34;29373;226;63009;-57
2023/01/29 00:28:26;;;;;;;0.60;0.60;;;;;;;-1.38;82.57;97915.06;29373;319;63004;-57
2023/01/29 00:28:59;;;;;;;0.60;0.60;;;;;;;-1.33;82.96;97914.47;29373;202;63009;-64
2023/01/29 00:29:30;;;;;;;0.70;0.70;;;;;;;-1.31;82.81;97915.13;29373;215;63004;-56
2023/01/29 00:30:10;;;;;;;0.60;0.60;;;;;;;-1.30;82.30;97914.09;29373;208;63015;-57
2023/01/29 00:30:42;;;;;;;0.70;0.70;;;;;;;-1.35;82.12;97912.84;29373;204;63005;-57
2023/01/29 00:31:16;;;;;;;0.60;0.60;;;;;;;-1.38;82.20;97912.37;29373;228;63009;-56
2023/01/29 00:31:48;;;;;;;0.60;0.60;;;;;;;-1.43;82.39;97920.97;29371;220;64009;-57
2023/01/29 00:32:19;;;;;;;0.60;0.60;;;;;;;-1.47;82.21;97917.03;29373;213;63009;-58
2023/01/29 00:32:50;;;;;;;0.60;0.60;;;;;;;-1.51;82.31;97923.78;29373;206;63005;-56
2023/01/29 00:33:21;;;;;;;0.60;0.60;;;;;;;-1.57;82.92;97921.88;29373;203;63009;-57
2023/01/29 00:33:54;;;;;;;0.60;0.60;;;;;;;-1.58;82.92;97922.06;29373;209;63005;-57
2023/01/29 00:34:25;;;;;;;0.60;0.60;;;;;;;-1.60;83.33;97919.59;29373;212;63009;-57
2023/01/29 00:34:57;;;;;;;0.60;0.60;;;;;;;-1.61;83.16;97919.78;29373;267;63004;-57
2023/01/29 00:35:30;;;;;;;0.70;0.70;;;;;;;-1.61;83.24;97925.91;29373;221;63009;-57
2023/01/29 00:36:08;;;;;;;0.60;0.60;;;;;;;-1.64;83.40;97920.97;29373;202;63004;-57
2023/01/29 00:36:39;;;;;;;0.60;0.60;;;;;;;-1.66;83.72;97925.66;29373;211;63009;-57
2023/01/29 00:37:10;;;;;;;3.10;2.97;;;;;;;-1.69;83.51;97920.72;29371;219;64009;-57
2023/01/29 00:37:43;;;;;;;0.60;0.60;;;;;;;-1.68;83.77;97925.03;29373;197;63008;-57
2023/01/29 00:38:14;;;;;;;0.70;0.70;;;;;;;-1.68;84.21;97919.69;29373;206;63005;-57
2023/01/29 00:38:53;;;;;;;0.60;0.60;;;;;;;-1.66;84.32;97920.34;29373;253;63009;-57
2023/01/29 00:39:25;;;;;;;0.60;0.60;;;;;;;-1.66;84.37;97915.00;29373;347;63005;-57
2023/01/29 00:39:57;;;;;;;0.60;0.60;;;;;;;-1.62;84.42;97907.47;29373;301;63019;-58
2023/01/29 00:44:56;;;;;;;0.70;0.70;;;;;;;-1.62;84.42;97910.97;29373;202;63005;-57
2023/01/29 00:44:56;;;;;;;0.70;0.70;;;;;;;-1.54;84.09;97904.69;29373;286;63009;-57
2023/01/29 00:45:28;;;;;;;0.70;0.70;;;;;;;-1.55;84.07;97906.53;29373;244;63009;-58
2023/01/29 00:45:59;;;;;;;0.68;0.68;;;;;;;-1.54;83.97;97918.00;29373;198;63009;-57
2023/01/29 00:46:30;;;;;;;0.70;0.70;;;;;;;-1.54;83.66;97910.84;29373;198;63005;-57
2023/01/29 00:47:03;;;;;;;0.70;0.70;;;;;;;-1.54;83.62;97913.50;29373;204;63009;-57
2023/01/29 00:47:34;;;;;;;0.60;0.60;;;;;;;-1.54;83.84;97912.69;29371;262;64009;-63
2023/01/29 00:48:06;;;;;;;0.65;0.65;;;;;;;-1.54;83.78;97912.69;29373;211;63009;-57
2023/01/29 00:48:37;;;;;;;0.60;0.60;;;;;;;-1.54;83.92;97913.50;29373;209;63005;-57
2023/01/29 00:49:09;;;;;;;0.60;0.60;;;;;;;-1.53;83.86;97909.81;29371;259;64013;-57
2023/01/29 00:49:40;;;;;;;0.70;0.70;;;;;;;-1.53;83.58;97915.16;29371;196;64009;-57
2023/01/29 00:50:12;;;;;;;0.70;0.70;;;;;;;-1.54;83.56;97913.50;29373;241;63009;-57
2023/01/29 00:50:46;;;;;;;0.70;0.70;;;;;;;-1.53;83.63;97909.00;29373;215;63000;-59
2023/01/29 00:51:18;;;;;;;0.70;0.70;;;;;;;-1.53;83.68;97909.00;29373;297;63009;-62
2023/01/29 00:52:42;;;;;;;0.68;0.68;;;;;;;-1.53;83.85;97914.31;29395;220;63008;-57
2023/01/29 00:53:13;;;;;;;0.60;0.60;;;;;;;-1.53;84.00;97917.81;29395;207;63004;-63
2023/01/29 00:53:44;;;;;;;0.70;0.70;;;;;;;-1.53;84.14;97909.81;29373;260;63009;-57
2023/01/29 00:54:15;;;;;;;0.70;0.70;;;;;;;-1.52;84.15;97911.47;29371;206;64009;-57
2023/01/29 00:54:47;;;;;;;0.70;0.70;;;;;;;-1.51;84.00;97912.28;29373;225;63009;-56
2023/01/29 00:55:18;;;;;;;0.60;0.60;;;;;;;-1.52;83.81;97911.47;29373;213;63005;-57
2023/01/29 00:55:49;;;;;;;0.70;0.70;;;;;;;-1.52;84.18;97908.81;29371;298;64013;-62
2023/01/29 00:56:20;;;;;;;0.70;0.70;;;;;;;-1.52;83.97;97908.81;29373;206;63005;-57
2023/01/29 00:56:52;;;;;;;0.60;0.60;;;;;;;-1.51;83.76;97912.28;29373;225;63009;-57
2023/01/29 00:57:25;;;;;;;0.68;0.68;;;;;;;-1.52;83.70;97905.31;29373;212;63012;-58
2023/01/29 00:57:56;;;;;;;0.70;0.70;;;;;;;-1.56;83.79;97910.19;29373;248;63009;-57
2023/01/29 00:58:33;;;;;;;0.70;0.70;;;;;;;-1.57;83.74;97908.56;29373;198;63004;-63
2023/01/29 00:59:04;;;;;;;0.68;0.68;;;;;;;-1.57;83.91;97911.22;29373;223;63009;-57
2023/01/29 00:59:35;;;;;;;0.60;0.60;;;;;;;-1.57;84.06;97908.56;29373;269;63004;-63
2023/01/29 01:00:10;;;;;;;0.70;0.70;;;;;;;-1.58;83.82;97912.22;29373;215;63008;-57
2023/01/29 01:00:42;;;;;;;0.65;0.65;;;;;;;-1.60;83.81;97914.25;29371;208;64008;-57
2023/01/29 01:01:14;;;;;;;0.70;0.70;;;;;;;-1.57;83.79;97913.06;29373;216;63009;-57
2023/01/29 01:03:24;;;;;;;0.60;0.60;;;;;;;-1.58;84.31;97906.91;29373;215;63005;-57
2023/01/29 01:03:55;;;;;;;0.60;0.60;;;;;;;-1.60;84.75;97911.59;29373;258;63009;-57
2023/01/29 01:04:26;;;;;;;0.70;0.70;;;;;;;-1.60;84.73;97906.28;29373;237;63004;-57
2023/01/29 01:05:01;;;;;;;0.60;0.60;;;;;;;-1.61;84.89;97907.28;29373;224;63009;-58
2023/01/29 01:05:33;;;;;;;0.62;0.62;;;;;;;-1.62;85.01;97905.63;29373;226;63004;-57
2023/01/29 01:06:06;;;;;;;0.70;0.70;;;;;;;-1.63;85.14;97906.66;29371;227;64013;-57
2023/01/29 01:06:42;;;;;;;0.60;0.60;;;;;;;-1.63;85.10;97906.66;29373;315;63004;-57
2023/01/29 01:07:13;;;;;;;0.90;0.90;;;;;;;-1.61;84.93;97911.78;29373;227;63008;-57
2023/01/29 01:07:46;;;;;;;0.60;0.60;;;;;;;-1.60;85.22;97913.44;29373;253;63004;-57
2023/01/29 01:11:01;;;;;;;0.60;0.60;;;;;;;-1.57;84.89;97908.56;29373;204;63005;-57
2023/01/29 01:11:33;;;;;;;0.70;0.70;;;;;;;-1.57;84.72;97911.22;29371;199;64013;-57
2023/01/29 01:12:06;;;;;;;0.60;0.60;;;;;;;-1.57;84.57;97913.88;29373;213;63004;-57
2023/01/29 01:12:37;;;;;;;0.60;0.60;;;;;;;-1.57;84.59;97913.88;29373;224;63018;-57
2023/01/29 01:13:09;;;;;;;0.60;0.60;;;;;;;-1.57;84.32;97911.22;29373;212;63004;-57
2023/01/29 01:13:40;;;;;;;0.65;0.65;;;;;;;-1.57;84.56;97913.88;29371;257;64013;-57
2023/01/29 01:14:11;;;;;;;0.68;0.68;;;;;;;-1.55;84.38;97905.69;29373;202;63004;-57
2023/01/29 01:14:46;;;;;;;0.70;0.70;;;;;;;-1.55;84.05;97906.53;29373;196;63008;-57
2023/01/29 01:15:18;;;;;;;0.60;0.60;;;;;;;-1.54;84.03;97913.50;29373;208;63005;-57
2023/01/29 01:15:49;;;;;;;0.70;0.70;;;;;;;-1.54;83.88;97908.19;29373;264;63009;-57
2023/01/29 01:16:20;;;;;;;0.70;0.70;;;;;;;-1.54;84.08;97908.19;29373;205;63005;-57
2023/01/29 01:16:51;;;;;;;0.60;0.60;;;;;;;-1.53;83.82;97911.66;29373;310;63009;-57
2023/01/29 01:17:23;;;;;;;0.70;0.70;;;;;;;-1.55;83.73;97909.19;29373;324;63005;-57
2023/01/29 01:17:56;;;;;;;0.62;0.62;;;;;;;-1.50;83.60;97914.75;29373;206;63009;-57
2023/01/29 01:18:30;;;;;;;0.68;0.68;;;;;;;-1.45;83.54;97917.69;29373;210;63005;-58
2023/01/29 01:19:04;;;;;;;0.60;0.60;;;;;;;-1.37;82.51;97914.84;29371;276;64013;-57
2023/01/29 01:19:35;;;;;;;0.60;0.60;;;;;;;-1.36;82.32;97913.84;29373;215;63008;-57
2023/01/29 01:20:08;;;;;;;0.60;0.60;;;;;;;-1.37;81.93;97909.53;29373;301;63009;-57
2023/01/29 01:20:40;;;;;;;0.60;0.60;;;;;;;-1.35;82.18;97912.84;29373;209;63004;-57
2023/01/29 01:21:11;;;;;;;0.60;0.60;;;;;;;-1.32;81.84;97916.12;29373;227;63009;-57
2023/01/29 01:21:45;;;;;;;0.70;0.70;;;;;;;-1.35;81.88;97918.16;29373;208;63004;-57
2023/01/29 01:22:21;;;;;;;0.77;0.77;;;;;;;-1.41;81.26;97910.97;29373;330;63008;-57
2023/01/29 01:22:55;;;;;;;0.65;0.65;;;;;;;-1.45;81.54;97912.34;29373;224;63005;-57
2023/01/29 01:23:32;;;;;;;0.70;0.70;;;;;;;-1.50;81.61;97909.44;29373;215;63009;-57
2023/01/29 01:24:05;;;;;;;0.70;0.70;;;;;;;-1.51;82.21;97915.78;29371;248;64009;-63
2023/01/29 01:24:37;;;;;;;0.60;0.60;;;;;;;-1.48;82.38;97904.75;29371;222;64013;-58
2023/01/29 01:25:08;;;;;;;0.70;0.70;;;;;;;-1.37;82.08;97914.03;29373;204;63005;-57
2023/01/29 01:25:41;;;;;;;2.37;2.17;;;;;;;-1.32;81.71;97905.47;29373;203;63017;-57
2023/01/29 01:26:13;;;;;;;0.60;0.60;;;;;;;-1.27;81.55;97914.53;29372;221;64005;-57
2023/01/29 01:26:45;;;;;;;0.70;0.70;;;;;;;-1.27;81.18;97903.06;29373;224;63009;-57
2023/01/29 01:27:18;;;;;;;0.70;0.70;;;;;;;-1.28;81.25;97907.56;29373;227;63004;-58
2023/01/29 01:27:52;;;;;;;0.68;0.68;;;;;;;-1.30;81.14;97909.59;29373;202;63009;-63
2023/01/29 01:28:25;;;;;;;0.60;0.60;;;;;;;-1.31;81.13;97907.94;29373;217;63004;-58
2023/01/29 01:28:56;;;;;;;0.60;0.60;;;;;;;-1.35;81.14;97902.19;29373;205;63009;-57
2023/01/29 01:29:28;;;;;;;0.60;0.60;;;;;;;-1.37;81.33;97904.22;29371;218;64008;-57
2023/01/29 01:29:59;;;;;;;0.60;0.60;;;;;;;-1.38;81.76;97899.06;29373;203;63008;-57
2023/01/29 01:30:31;;;;;;;0.60;0.60;;;;;;;-1.36;81.76;97903.19;29373;197;63005;-62
2023/01/29 01:31:11;;;;;;;0.68;0.68;;;;;;;-1.37;81.54;97906.88;29373;203;63016;-57
2023/01/29 01:31:44;;;;;;;0.80;0.80;;;;;;;-1.36;81.43;97905.84;29373;197;63008;-57
2023/01/29 01:32:15;;;;;;;0.70;0.70;;;;;;;-1.35;81.46;97906.69;29373;225;63009;-57
2023/01/29 01:32:47;;;;;;;0.62;0.62;;;;;;;-1.40;81.11;97899.31;29373;215;63005;-57
2023/01/29 01:33:18;;;;;;;0.60;0.60;;;;;;;-1.45;81.32;97901.72;29373;224;63009;-57
2023/01/29 01:33:50;;;;;;;0.60;0.60;;;;;;;-1.47;81.62;97902.91;29371;226;64009;-56
2023/01/29 01:34:21;;;;;;;0.60;0.60;;;;;;;-1.41;81.50;97900.31;29373;222;63009;-58
2023/01/29 01:34:52;;;;;;;0.60;0.60;;;;;;;-1.34;81.42;97903.00;29373;227;63004;-57
2023/01/29 01:35:24;;;;;;;0.60;0.60;;;;;;;-1.33;81.12;97901.16;29373;221;63009;-57
2023/01/29 01:36:00;;;;;;;0.60;0.60;;;;;;;-1.35;80.96;97902.19;29373;264;63004;-57
2023/01/29 01:36:31;;;;;;;0.70;0.70;;;;;;;-1.37;81.18;97904.22;29371;317;64013;-57
2023/01/29 01:37:03;;;;;;;0.70;0.70;;;;;;;-1.40;81.40;97904.63;29373;198;63004;-58
2023/01/29 01:37:37;;;;;;;1.50;1.25;;;;;;;-1.37;81.23;97898.88;29373;218;63021;-59
2023/01/29 01:38:09;;;;;;;0.60;0.60;;;;;;;-1.22;80.48;97905.97;29373;224;63015;-58
2023/01/29 01:38:43;;;;;;;0.60;0.60;;;;;;;-1.18;79.97;97907.25;29373;223;63009;-57
2023/01/29 01:39:15;;;;;;;0.60;0.60;;;;;;;-1.24;79.90;97906.16;29373;234;63005;-57
2023/01/29 01:39:47;;;;;;;0.60;0.60;;;;;;;-1.24;80.35;97908.00;29373;197;63009;-59
2023/01/29 01:40:23;;;;;;;0.70;0.70;;;;;;;-1.26;80.24;97904.72;29373;214;63005;-58
2023/01/29 01:40:54;;;;;;;2.65;2.45;;;;;;;-1.28;80.27;97898.75;29373;202;63009;-57
2023/01/29 01:41:27;;;;;;;1.23;1.12;;;;;;;-1.30;80.20;97908.78;29373;259;63016;-57
2023/01/29 01:41:58;;;;;;;0.70;0.70;;;;;;;-1.35;80.29;97906.69;29371;214;64013;-58
2023/01/29 01:42:30;;;;;;;0.70;0.70;;;;;;;-1.37;80.60;97914.84;29373;224;63004;-58
2023/01/29 01:43:02;;;;;;;0.80;0.80;;;;;;;-1.29;80.56;97910.41;29373;259;63009;-57
2023/01/29 01:43:57;;;;;;;0.70;0.70;;;;;;;-1.26;80.36;97910.84;29373;288;63004;-57
2023/01/29 01:44:55;;;;;;;0.60;0.60;;;;;;;-1.29;80.60;97902.44;29373;225;63008;-62
2023/01/29 01:45:35;;;;;;;0.60;0.60;;;;;;;-1.28;80.65;97904.06;29373;199;63009;-57
2023/01/29 01:46:10;;;;;;;0.80;0.80;;;;;;;-1.24;80.27;97908.00;29373;206;63005;-59
2023/01/29 01:46:41;;;;;;;0.70;0.70;;;;;;;-1.26;80.45;97904.72;29371;225;64014;-57
2023/01/29 01:47:15;;;;;;;0.70;0.70;;;;;;;-1.29;80.46;97905.09;29371;224;64009;-57
2023/01/29 01:47:51;;;;;;;0.62;0.62;;;;;;;-1.31;80.44;97907.13;29373;221;63009;-57
2023/01/29 01:48:25;;;;;;;0.77;0.77;;;;;;;-1.27;80.42;97900.41;29373;235;63005;-57
2023/01/29 01:49:10;;;;;;;0.62;0.62;;;;;;;-1.23;80.17;97899.00;29373;246;63009;-57
2023/01/29 01:49:44;;;;;;;0.70;0.70;;;;;;;-1.24;79.85;97898.19;29373;205;63004;-57
2023/01/29 01:50:33;;;;;;;0.70;0.70;;;;;;;-1.29;79.95;97897.94;29373;202;63009;-57
2023/01/29 01:51:05;;;;;;;0.70;0.70;;;;;;;-1.32;80.07;97900.16;29373;199;63004;-57
2023/01/29 01:51:45;;;;;;;0.70;0.70;;;;;;;-1.38;80.19;97899.91;29373;206;63009;-63
2023/01/29 01:52:19;;;;;;;0.70;0.70;;;;;;;-1.41;80.36;97899.50;29393;210;64008;-58
2023/01/29 01:52:57;;;;;;;0.70;0.70;;;;;;;-1.46;80.75;97905.37;29395;212;63009;-57
2023/01/29 01:53:39;;;;;;;0.70;0.70;;;;;;;-1.50;80.63;97904.13;29373;246;63005;-58
2023/01/29 01:54:22;;;;;;;0.70;0.70;;;;;;;-1.54;81.10;97902.84;29373;221;63014;-57
2023/01/29 01:54:54;;;;;;;0.70;0.70;;;;;;;-1.57;81.13;97897.91;29373;227;63005;-58
2023/01/29 01:55:29;;;;;;;0.60;0.60;;;;;;;-1.59;81.22;97894.62;29373;198;63009;-58
2023/01/29 01:56:06;;;;;;;0.70;0.70;;;;;;;-1.58;81.49;97896.25;29373;252;63005;-57
2023/01/29 01:56:43;;;;;;;0.70;0.70;;;;;;;-1.55;81.94;97898.53;29373;228;63009;-57
2023/01/29 01:57:23;;;;;;;0.60;0.60;;;;;;;-1.54;81.61;97894.03;29373;252;63004;-58
2023/01/29 01:58:01;;;;;;;0.70;0.70;;;;;;;-1.55;81.80;97898.53;29371;206;64013;-58
2023/01/29 01:58:53;;;;;;;0.70;0.70;;;;;;;-1.56;82.11;97894.22;29373;214;63004;-57
2023/01/29 01:59:24;;;;;;;;;;;;;;;-1.57;82.10;97892.59;29974;983;28000;-58
2023/01/29 02:00:09;;;;;;;0.70;0.70;;;;;;;-1.55;81.99;97901.22;29422;234;63008;-57
2023/01/29 02:00:41;;;;;;;0.60;0.60;;;;;;;-1.55;82.23;97901.22;29395;213;63005;-57
2023/01/29 02:01:13;;;;;;;0.70;0.70;;;;;;;-1.58;81.82;97893.59;29373;199;63009;-57
2023/01/29 02:01:50;;;;;;;0.70;0.70;;;;;;;-1.55;82.18;97901.22;29373;279;63005;-57
2023/01/29 02:10:05;;;;;;;0.70;0.70;;;;;;;-1.74;82.57;97896.53;29373;278;63009;-57
2023/01/29 02:10:42;;;;;;;0.70;0.70;;;;;;;-1.66;82.85;97893.72;29373;246;63005;-57
2023/01/29 02:11:13;;;;;;;0.70;0.70;;;;;;;-1.58;82.46;97898.94;29373;209;63009;-58
2023/01/29 02:11:49;;;;;;;0.70;0.70;;;;;;;-1.53;82.06;97899.19;29371;202;64009;-59
2023/01/29 02:12:23;;;;;;;1.50;1.42;;;;;;;-1.47;81.25;97897.59;29373;198;63023;-57
2023/01/29 02:12:54;;;;;;;0.70;0.70;;;;;;;-1.47;81.02;97903.75;29373;208;63004;-59
2023/01/29 02:13:26;;;;;;;0.70;0.70;;;;;;;-1.50;81.19;97898.78;29373;202;63009;-57
2023/01/29 02:13:59;;;;;;;0.70;0.70;;;;;;;-1.53;81.46;97904.50;29371;202;64008;-57
2023/01/29 02:14:37;;;;;;;0.90;0.90;;;;;;;-1.54;81.27;97902.84;29373;218;63008;-62
2023/01/29 02:15:10;;;;;;;0.70;0.70;;;;;;;-1.54;81.89;97905.50;29371;240;64008;-56
2023/01/29 02:15:45;;;;;;;0.70;0.70;;;;;;;-1.53;81.54;97909.00;29373;202;63009;-58
2023/01/29 02:16:16;;;;;;;0.62;0.62;;;;;;;-1.54;81.60;97913.50;29373;204;63005;-57
2023/01/29 02:16:48;;;;;;;0.70;0.70;;;;;;;-1.55;81.43;97909.19;29373;248;63009;-57
2023/01/29 02:17:29;;;;;;;0.70;0.70;;;;;;;-1.56;81.69;97909.38;29371;218;64009;-57
2023/01/29 02:18:01;;;;;;;0.70;0.70;;;;;;;-1.57;81.42;97910.41;29398;207;64009;-59
2023/01/29 02:18:36;;;;;;;0.70;0.70;;;;;;;-1.60;81.73;97919.59;29395;240;63010;-57
2023/01/29 02:19:46;;;;;;;0.70;0.70;;;;;;;-1.63;81.45;97913.81;29373;227;63009;-57
2023/01/29 02:20:23;;;;;;;0.70;0.70;;;;;;;-1.68;81.58;97911.72;29373;227;63004;-57
2023/01/29 02:21:24;;;;;;;0.70;0.70;;;;;;;-1.74;81.52;97909.84;29373;214;63009;-57
2023/01/29 02:22:41;;;;;;;0.70;0.70;;;;;;;-1.78;81.64;97912.06;29373;226;63004;-57
2023/01/29 02:23:55;;;;;;;0.60;0.60;;;;;;;-1.84;81.78;97912.00;29371;238;64014;-58
2023/01/29 02:25:12;;;;;;;0.70;0.70;;;;;;;-1.80;82.48;97915.91;29371;265;64009;-58
2023/01/29 02:26:25;;;;;;;0.70;0.70;;;;;;;-1.77;82.53;97912.87;29373;204;63019;-57
2023/01/29 02:27:21;;;;;;;;;;;;;;;-1.70;82.53;97914.56;29973;983;29004;-58
2023/01/29 02:28:47;;;;;;;0.62;0.62;;;;;;;-1.54;80.98;97912.69;29400;256;63000;-59
2023/01/29 02:30:01;;;;;;;0.70;0.70;;;;;;;-1.55;81.03;97914.50;29373;211;63004;-57
2023/01/29 02:30:44;;;;;;;0.60;0.60;;;;;;;-1.56;80.81;97904.06;29373;202;63010;-60
2023/01/29 02:31:40;;;;;;;0.70;0.70;;;;;;;-1.59;80.84;97905.25;29371;205;64014;-58
2023/01/29 02:32:34;;;;;;;0.70;0.70;;;;;;;-1.59;80.99;97915.09;29373;226;63011;-57
2023/01/29 02:33:53;;;;;;;0.70;0.70;;;;;;;-1.58;81.15;97914.06;29373;216;63005;-59
2023/01/29 02:35:28;;;;;;;0.70;0.70;;;;;;;-1.60;80.84;97914.25;29371;242;64013;-57
2023/01/29 02:36:23;;;;;;;0.70;0.70;;;;;;;-1.50;80.28;97914.75;29373;212;63004;-58
2023/01/29 02:37:07;;;;;;;1.00;1.00;;;;;;;-1.44;79.66;97913.19;29373;202;63010;-57
2023/01/29 02:37:49;;;;;;;7.65;7.05;;;;;;;-1.45;79.50;97911.53;29373;230;63009;-58
2023/01/29 02:38:38;;;;;;;0.70;0.70;;;;;;;-1.48;79.84;97918.06;29373;251;63005;-58
2023/01/29 02:39:39;;;;;;;0.70;0.70;;;;;;;-1.56;79.90;97907.53;29371;203;64013;-57
2023/01/29 02:40:39;;;;;;;0.70;0.70;;;;;;;-1.52;79.62;97905.31;29373;202;63009;-57
2023/01/29 02:41:45;;;;;;;0.70;0.70;;;;;;;-1.55;79.85;97905.69;29373;229;63017;-57
2023/01/29 02:42:46;;;;;;;0.70;0.70;;;;;;;-1.62;79.67;97904.81;29373;219;63004;-58
2023/01/29 02:43:50;;;;;;;0.70;0.70;;;;;;;-1.59;80.14;97899.94;29373;202;63009;-57
2023/01/29 02:44:51;;;;;;;0.70;0.70;;;;;;;-1.62;80.02;97904.81;29371;211;64008;-57
2023/01/29 02:45:42;;;;;;;0.60;0.60;;;;;;;-1.70;79.54;97908.44;29373;221;63009;-57
2023/01/29 02:46:59;;;;;;;0.60;0.60;;;;;;;-1.78;80.50;97905.91;29373;206;63005;-58
2023/01/29 02:47:52;;;;;;;0.70;0.70;;;;;;;-1.84;80.88;97906.66;29373;218;63009;-58
2023/01/29 02:48:28;;;;;;;0.60;0.60;;;;;;;-1.87;81.15;97912.37;29373;235;63005;-57
2023/01/29 02:49:47;;;;;;;0.70;0.70;;;;;;;-1.93;81.36;97907.78;29373;209;63009;-57
2023/01/29 02:50:32;;;;;;;0.70;0.70;;;;;;;-1.99;81.92;97912.03;29371;280;64009;-57
2023/01/29 02:51:19;;;;;;;0.70;0.70;;;;;;;-2.04;82.04;97917.91;29373;210;63009;-62
2023/01/29 02:52:30;;;;;;;0.70;0.70;;;;;;;-2.06;82.13;97911.13;29373;229;63004;-57
2023/01/29 02:53:18;;;;;;;0.70;0.70;;;;;;;-2.07;82.32;97910.31;29373;198;63009;-57
2023/01/29 02:54:28;;;;;;;0.70;0.70;;;;;;;-2.06;82.24;97911.94;29373;199;63005;-58
2023/01/29 02:55:09;;;;;;;0.70;0.70;;;;;;;-2.07;82.48;97910.31;29373;233;63009;-57
2023/01/29 02:55:56;;;;;;;0.70;0.70;;;;;;;-2.05;82.57;97905.63;29393;250;64009;-58
2023/01/29 02:56:40;;;;;;;0.70;0.70;;;;;;;-2.04;82.28;97906.44;29395;224;63009;-58
2023/01/29 02:57:28;;;;;;;0.70;0.70;;;;;;;-2.04;82.21;97901.12;29373;271;63004;-57
2023/01/29 02:58:41;;;;;;;0.70;0.70;;;;;;;-2.06;82.10;97909.28;29373;228;63009;-57
2023/01/29 02:59:18;;;;;;;0.70;0.70;;;;;;;-2.03;82.26;97900.13;29371;215;64008;-57
2023/01/29 03:00:01;;;;;;;0.70;0.70;;;;;;;-2.08;81.85;97906.00;29373;231;63008;-57
2023/01/29 03:00:39;;;;;;;0.70;0.70;;;;;;;-2.10;81.86;97902.72;29373;242;63016;-57
2023/01/29 03:01:29;;;;;;;0.70;0.70;;;;;;;-2.11;81.83;97906.41;29373;230;63009;-57
2023/01/29 03:02:17;;;;;;;0.70;0.70;;;;;;;-2.10;81.87;97902.72;29373;234;63005;-57
2023/01/29 03:02:59;;;;;;;0.70;0.70;;;;;;;-2.09;82.38;97903.56;29373;222;63009;-59
2023/01/29 03:03:41;;;;;;;0.70;0.70;;;;;;;-2.09;82.29;97899.06;29373;218;63005;-57
2023/01/29 03:04:19;;;;;;;0.70;0.70;;;;;;;-2.06;82.62;97897.81;29371;234;64013;-58
2023/01/29 03:04:57;;;;;;;0.70;0.70;;;;;;;-2.05;82.80;97905.63;29373;232;63004;-57
2023/01/29 03:06:01;;;;;;;0.70;0.70;;;;;;;-2.02;82.66;97899.94;29373;330;63009;-59
2023/01/29 03:06:57;;;;;;;0.70;0.70;;;;;;;-2.00;83.02;97899.75;29373;227;63004;-58
2023/01/29 03:07:45;;;;;;;0.70;0.70;;;;;;;-2.00;82.60;97894.41;29373;224;63008;-57
2023/01/29 03:08:35;;;;;;;0.70;0.70;;;;;;;-1.98;82.48;97896.91;29373;204;63005;-59
2023/01/29 03:09:15;;;;;;;0.70;0.70;;;;;;;-2.00;82.94;97901.56;29373;208;63009;-57
2023/01/29 03:09:52;;;;;;;0.70;0.70;;;;;;;-2.00;82.96;97901.56;29371;222;64009;-57
2023/01/29 03:10:54;;;;;;;0.70;0.70;;;;;;;-2.00;82.72;97906.91;29373;212;63009;-58
2023/01/29 03:11:41;;;;;;;0.70;0.70;;;;;;;-1.93;82.90;97899.81;29395;224;63014;-57
2023/01/29 03:12:32;;;;;;;0.70;0.70;;;;;;;-1.91;82.79;97905.78;29394;202;64007;-57
2023/01/29 03:13:25;;;;;;;0.70;0.70;;;;;;;-1.91;82.58;97905.78;29395;261;63004;-59
2023/01/29 03:14:12;;;;;;;0.70;0.70;;;;;;;-1.91;82.46;97903.09;29395;244;63009;-58
2023/01/29 03:15:46;;;;;;;0.70;0.70;;;;;;;-1.91;82.64;97906.59;29373;199;63009;-60
2023/01/29 03:16:55;;;;;;;0.70;0.70;;;;;;;-1.92;82.46;97909.44;29395;222;63018;-57
2023/01/29 03:17:33;;;;;;;0.60;0.60;;;;;;;-1.91;82.78;97903.09;29394;214;64013;-57
2023/01/29 03:18:15;;;;;;;0.60;0.60;;;;;;;-1.90;82.68;97902.91;29371;247;64009;-59
2023/01/29 03:19:35;;;;;;;0.60;0.60;;;;;;;-1.88;82.91;97910.72;29371;238;64013;-58
2023/01/29 03:20:13;;;;;;;0.70;0.70;;;;;;;-1.89;82.75;97903.75;29373;199;63004;-58